Time;durP1;ratioP1;P1;durP2;ratioP2;P2;SDS_P1;SDS_P2;PMS_P1;PMS_P2;Temp;Humidity;BMP_temperature;BMP_pressure;BME280_temperature;BME280_humidity;BME280_pressure;Samples;Min_cycle;Max_cycle;Signal;HPM_P1;HPM_P2
2021/10/30 00:02:15;;;;;;;7.32;5.45;;;12.00;99.90;;;;;;5072223;28;20036;-80
2021/10/30 00:04:41;;;;;;;9.25;5.78;;;12.00;99.90;;;;;;5090890;28;20082;-81
2021/10/30 00:07:07;;;;;;;7.47;5.78;;;11.90;99.90;;;;;;5077729;28;20358;-81
2021/10/30 00:09:32;;;;;;;7.15;5.25;;;11.90;99.90;;;;;;5090925;28;20460;-81
2021/10/30 00:11:58;;;;;;;7.63;5.10;;;11.90;99.90;;;;;;5090581;28;20054;-82
2021/10/30 00:14:23;;;;;;;7.78;6.25;;;11.80;99.90;;;;;;5071948;28;20035;-81
2021/10/30 00:16:49;;;;;;;8.07;6.90;;;11.80;99.90;;;;;;5071574;28;20036;-82
2021/10/30 00:19:15;;;;;;;9.32;6.85;;;11.80;99.90;;;;;;5091432;28;20135;-80
2021/10/30 00:21:40;;;;;;;7.80;6.50;;;11.80;99.90;;;;;;5090186;28;20478;-81
2021/10/30 00:24:06;;;;;;;10.55;7.30;;;11.80;99.90;;;;;;5089470;28;20024;-80
2021/10/30 00:26:31;;;;;;;8.50;6.70;;;11.80;99.90;;;;;;5088873;28;20397;-80
2021/10/30 00:28:57;;;;;;;8.02;6.13;;;11.80;99.90;;;;;;5088781;28;20028;-79
2021/10/30 00:31:23;;;;;;;7.07;5.90;;;11.70;99.90;;;;;;5088064;28;20474;-82
2021/10/30 00:33:48;;;;;;;7.55;5.32;;;11.70;99.90;;;;;;5088626;28;20039;-81
2021/10/30 00:36:14;;;;;;;8.48;5.30;;;11.70;99.90;;;;;;5089366;28;20028;-80
2021/10/30 00:38:39;;;;;;;9.18;6.85;;;11.60;99.90;;;;;;5089657;28;20464;-81
2021/10/30 00:41:06;;;;;;;9.55;8.10;;;11.60;99.90;;;;;;5071809;28;20028;-81
2021/10/30 00:43:33;;;;;;;10.13;7.60;;;11.60;99.90;;;;;;5089550;28;20135;-82
2021/10/30 00:45:59;;;;;;;8.18;6.72;;;11.60;99.90;;;;;;5088990;28;20039;-81
2021/10/30 00:48:24;;;;;;;8.35;6.55;;;11.60;99.90;;;;;;5078002;28;20044;-80
2021/10/30 00:50:50;;;;;;;8.45;6.88;;;11.70;99.90;;;;;;5088502;28;20077;-81
2021/10/30 00:53:17;;;;;;;8.60;7.05;;;11.60;99.90;;;;;;5089318;28;20164;-81
2021/10/30 00:55:44;;;;;;;9.38;6.78;;;11.60;99.90;;;;;;5089177;28;20035;-81
2021/10/30 00:58:13;;;;;;;8.55;7.18;;;11.60;99.90;;;;;;5089727;28;20479;-82
2021/10/30 01:00:39;;;;;;;7.82;6.32;;;11.60;99.90;;;;;;5087259;28;20020;-82
2021/10/30 01:03:06;;;;;;;8.32;6.20;;;11.60;99.90;;;;;;5090141;28;20042;-82
2021/10/30 01:05:33;;;;;;;7.57;6.18;;;11.50;99.90;;;;;;5089043;28;20030;-82
2021/10/30 01:07:59;;;;;;;7.22;5.53;;;11.50;99.90;;;;;;5087710;28;20122;-81
2021/10/30 01:10:24;;;;;;;8.25;6.30;;;11.50;99.90;;;;;;5088903;28;20111;-82
2021/10/30 01:12:51;;;;;;;7.50;5.97;;;11.50;99.90;;;;;;5089990;28;20375;-81
2021/10/30 01:15:17;;;;;;;5.88;4.70;;;11.40;99.90;;;;;;5088171;28;20020;-81
2021/10/30 01:17:42;;;;;;;5.90;4.47;;;11.40;99.90;;;;;;5089143;28;20101;-81
2021/10/30 01:20:19;;;;;;;6.22;4.75;;;11.30;99.90;;;;;;5087108;28;20115;-83
2021/10/30 01:22:45;;;;;;;6.20;4.82;;;11.30;99.90;;;;;;5080004;28;20540;-81
2021/10/30 01:25:10;;;;;;;5.65;4.25;;;11.20;99.90;;;;;;5088395;28;20115;-80
2021/10/30 01:27:36;;;;;;;7.35;4.78;;;11.20;99.90;;;;;;5086541;28;20076;-81
2021/10/30 01:30:02;;;;;;;5.35;4.18;;;11.10;99.90;;;;;;5086785;28;20104;-81
2021/10/30 01:32:28;;;;;;;5.90;4.72;;;11.10;99.90;;;;;;5086900;28;20392;-81
2021/10/30 01:34:54;;;;;;;5.55;4.45;;;11.00;99.90;;;;;;5086154;28;20504;-81
2021/10/30 01:37:19;;;;;;;5.53;4.10;;;11.00;99.90;;;;;;5085901;28;20109;-80
2021/10/30 01:39:45;;;;;;;5.18;4.15;;;10.90;99.90;;;;;;5086781;28;20111;-81
2021/10/30 01:42:11;;;;;;;5.93;4.13;;;10.90;99.90;;;;;;5089226;28;20058;-82
2021/10/30 01:44:36;;;;;;;6.93;4.80;;;10.80;99.90;;;;;;5092148;28;20050;-81
2021/10/30 01:47:02;;;;;;;6.70;5.05;;;10.80;99.90;;;;;;5093415;28;20478;-81
2021/10/30 01:49:29;;;;;;;6.28;4.47;;;10.80;99.90;;;;;;5091942;28;20052;-82
2021/10/30 01:51:55;;;;;;;5.97;4.13;;;10.80;99.90;;;;;;5092046;28;20139;-82
2021/10/30 01:54:21;;;;;;;6.28;4.40;;;10.80;99.90;;;;;;5093482;28;20028;-82
2021/10/30 01:56:47;;;;;;;6.07;4.97;;;10.70;99.90;;;;;;5092055;28;20020;-81
2021/10/30 01:59:13;;;;;;;6.82;5.38;;;10.70;99.90;;;;;;5092844;28;20099;-81
2021/10/30 02:01:39;;;;;;;6.82;5.03;;;10.70;99.90;;;;;;5092871;28;20020;-82
2021/10/30 02:04:05;;;;;;;7.38;5.97;;;10.70;99.90;;;;;;5093289;28;20035;-84
2021/10/30 02:06:31;;;;;;;7.35;5.63;;;10.70;99.90;;;;;;5093198;28;20122;-83
2021/10/30 02:08:56;;;;;;;7.75;5.82;;;10.70;99.90;;;;;;5093101;28;20020;-82
2021/10/30 02:11:22;;;;;;;7.57;5.43;;;10.80;99.90;;;;;;5092670;28;20445;-83
2021/10/30 02:13:47;;;;;;;8.18;5.53;;;10.80;99.90;;;;;;5091631;28;20020;-81
2021/10/30 02:16:13;;;;;;;7.53;5.93;;;10.80;99.90;;;;;;5092823;28;20035;-83
2021/10/30 02:18:42;;;;;;;7.47;6.00;;;10.90;99.90;;;;;;5091705;28;20529;-84
2021/10/30 02:21:08;;;;;;;8.88;6.30;;;10.90;99.90;;;;;;5087728;28;20055;-82
2021/10/30 02:23:34;;;;;;;8.50;5.90;;;10.90;99.90;;;;;;5092165;28;20438;-82
2021/10/30 02:25:59;;;;;;;8.15;5.50;;;10.90;99.90;;;;;;5090642;28;20038;-83
2021/10/30 02:28:25;;;;;;;7.78;5.82;;;10.90;99.90;;;;;;5089390;28;20086;-81
2021/10/30 02:30:51;;;;;;;8.25;6.03;;;10.90;99.90;;;;;;5091843;28;20024;-84
2021/10/30 02:33:16;;;;;;;8.02;5.35;;;10.90;99.90;;;;;;5090911;28;20028;-82
2021/10/30 02:35:42;;;;;;;8.45;5.88;;;10.90;99.90;;;;;;5091379;28;20093;-81
2021/10/30 02:38:08;;;;;;;7.13;5.65;;;10.90;99.90;;;;;;5092576;28;20118;-82
2021/10/30 02:40:34;;;;;;;7.30;5.28;;;10.90;99.90;;;;;;5091504;28;20016;-82
2021/10/30 02:43:00;;;;;;;7.13;5.10;;;10.90;99.90;;;;;;5091093;28;20059;-83
2021/10/30 02:45:26;;;;;;;7.25;5.28;;;11.00;99.90;;;;;;5092609;28;20027;-81
2021/10/30 02:47:51;;;;;;;7.65;5.55;;;11.00;99.90;;;;;;5092053;28;20040;-83
2021/10/30 02:50:17;;;;;;;6.88;5.72;;;11.00;99.90;;;;;;5091228;28;20051;-82
2021/10/30 02:52:43;;;;;;;8.50;5.85;;;11.10;99.90;;;;;;5092310;28;20028;-83
2021/10/30 02:55:10;;;;;;;7.13;5.28;;;11.10;99.90;;;;;;5074441;28;20466;-81
2021/10/30 02:57:35;;;;;;;7.65;5.47;;;11.10;99.90;;;;;;5074278;28;20036;-82
2021/10/30 03:00:02;;;;;;;6.20;4.88;;;11.20;99.90;;;;;;5073918;28;20406;-83
2021/10/30 03:02:28;;;;;;;6.88;5.15;;;11.20;99.90;;;;;;5073856;28;20025;-83
2021/10/30 03:04:54;;;;;;;6.95;5.32;;;11.20;99.90;;;;;;5073996;28;20021;-83
2021/10/30 03:07:22;;;;;;;6.78;4.95;;;11.20;99.90;;;;;;5074132;28;20125;-83
2021/10/30 03:09:49;;;;;;;6.97;4.82;;;11.20;99.90;;;;;;5092324;28;20032;-82
2021/10/30 03:12:16;;;;;;;6.28;5.05;;;11.20;99.90;;;;;;5091223;28;20023;-83
2021/10/30 03:14:42;;;;;;;6.65;5.28;;;11.30;99.90;;;;;;5092162;28;20035;-82
2021/10/30 03:17:09;;;;;;;5.90;4.70;;;11.30;99.90;;;;;;5092259;28;20032;-82
2021/10/30 03:19:34;;;;;;;5.72;4.45;;;11.30;99.90;;;;;;5073928;28;20109;-84
2021/10/30 03:22:00;;;;;;;5.82;4.70;;;11.30;99.90;;;;;;5092294;28;20052;-83
2021/10/30 03:24:25;;;;;;;6.30;4.95;;;11.30;99.90;;;;;;5093728;28;20537;-81
2021/10/30 03:26:51;;;;;;;5.47;4.57;;;11.30;99.90;;;;;;5077823;28;20077;-81
2021/10/30 03:29:16;;;;;;;7.43;5.05;;;11.30;99.90;;;;;;5095795;28;20474;-81
2021/10/30 03:31:42;;;;;;;7.82;5.63;;;11.40;99.90;;;;;;5095527;28;20021;-82
2021/10/30 03:34:07;;;;;;;7.30;6.05;;;11.40;99.90;;;;;;5095607;28;20073;-81
2021/10/30 03:36:33;;;;;;;9.00;7.03;;;11.40;99.90;;;;;;5077572;28;20023;-82
2021/10/30 03:38:59;;;;;;;8.18;6.57;;;11.40;99.90;;;;;;5077526;28;20028;-81
2021/10/30 03:41:25;;;;;;;10.23;6.50;;;11.40;99.90;;;;;;5095606;28;20035;-83
2021/10/30 03:43:51;;;;;;;12.15;7.72;;;11.50;99.90;;;;;;5077390;28;20470;-82
2021/10/30 03:46:17;;;;;;;9.32;7.07;;;11.40;99.90;;;;;;5077496;28;20020;-82
2021/10/30 03:48:42;;;;;;;9.10;7.93;;;11.50;99.90;;;;;;5086668;28;20036;-83
2021/10/30 03:51:08;;;;;;;10.82;9.45;;;11.50;99.90;;;;;;5094111;28;20024;-82
2021/10/30 03:53:34;;;;;;;10.27;7.78;;;11.50;99.90;;;;;;5094136;28;20486;-83
2021/10/30 03:55:59;;;;;;;9.77;8.18;;;11.50;99.90;;;;;;5093929;28;20489;-83
2021/10/30 03:58:25;;;;;;;11.15;9.35;;;11.50;99.90;;;;;;5093845;28;20085;-83
2021/10/30 04:00:51;;;;;;;11.23;9.55;;;11.50;99.90;;;;;;5093981;28;20032;-83
2021/10/30 04:03:16;;;;;;;12.32;9.05;;;11.50;99.90;;;;;;5095083;28;20042;-82
2021/10/30 04:05:42;;;;;;;13.25;8.20;;;11.50;99.90;;;;;;5095124;28;20034;-83
2021/10/30 04:08:08;;;;;;;8.80;7.30;;;11.50;99.90;;;;;;5095166;28;20043;-83
2021/10/30 04:10:34;;;;;;;9.20;7.30;;;11.50;99.90;;;;;;5093933;28;20489;-81
2021/10/30 04:13:00;;;;;;;7.95;6.70;;;11.60;99.90;;;;;;5094897;28;20058;-83
2021/10/30 04:15:26;;;;;;;8.63;7.03;;;11.50;99.90;;;;;;5093752;28;20531;-81
2021/10/30 04:17:51;;;;;;;13.25;8.13;;;11.60;99.90;;;;;;5095334;28;20485;-83
2021/10/30 04:20:17;;;;;;;9.77;7.10;;;11.60;99.90;;;;;;5095016;28;20031;-81
2021/10/30 04:22:43;;;;;;;9.93;7.20;;;11.60;99.90;;;;;;5094742;28;20036;-82
2021/10/30 04:25:09;;;;;;;9.65;8.02;;;11.60;99.90;;;;;;5093503;28;20012;-83
2021/10/30 04:27:34;;;;;;;11.45;8.77;;;11.60;99.90;;;;;;5093392;28;20050;-83
2021/10/30 04:30:00;;;;;;;12.23;9.18;;;11.60;99.90;;;;;;5094610;28;20020;-80
2021/10/30 04:32:26;;;;;;;11.07;8.60;;;11.60;99.90;;;;;;5094536;28;20047;-82
2021/10/30 04:35:03;;;;;;;16.17;10.82;;;11.60;99.90;;;;;;5093381;28;20020;-82
2021/10/30 04:37:29;;;;;;;13.30;10.43;;;11.70;99.90;;;;;;5094905;28;20016;-82
2021/10/30 04:39:54;;;;;;;13.18;10.30;;;11.60;99.90;;;;;;5094384;28;20037;-82
2021/10/30 04:42:20;;;;;;;17.23;11.43;;;11.60;99.90;;;;;;5094508;28;20036;-82
2021/10/30 04:44:46;;;;;;;14.30;10.80;;;11.60;99.90;;;;;;5093330;28;20024;-82
2021/10/30 04:47:16;;;;;;;14.48;10.90;;;11.60;99.90;;;;;;5093094;28;20057;-81
2021/10/30 04:49:44;;;;;;;13.77;10.50;;;11.60;99.90;;;;;;5094472;28;20042;-83
2021/10/30 04:52:10;;;;;;;12.27;9.52;;;11.60;99.90;;;;;;5094482;28;20017;-81
2021/10/30 04:54:35;;;;;;;13.43;10.32;;;11.60;99.90;;;;;;5075760;28;20028;-82
2021/10/30 04:57:01;;;;;;;16.88;12.40;;;11.60;99.90;;;;;;5094179;28;20104;-82
2021/10/30 04:59:27;;;;;;;13.30;11.07;;;11.60;99.90;;;;;;5093727;28;20030;-82
2021/10/30 05:01:52;;;;;;;15.75;11.60;;;11.60;99.90;;;;;;5075736;28;20056;-81
2021/10/30 05:04:18;;;;;;;15.13;11.88;;;11.60;99.90;;;;;;5076126;28;20024;-81
2021/10/30 05:06:44;;;;;;;15.15;11.30;;;11.50;99.90;;;;;;5075922;28;20031;-83
2021/10/30 05:09:10;;;;;;;15.60;12.40;;;11.60;99.90;;;;;;5075938;28;20372;-81
2021/10/30 05:11:35;;;;;;;16.48;12.32;;;11.50;99.90;;;;;;5075862;28;20055;-82
2021/10/30 05:14:01;;;;;;;17.05;12.68;;;11.50;99.90;;;;;;5093862;28;20079;-82
2021/10/30 05:16:26;;;;;;;15.38;12.60;;;11.50;99.90;;;;;;5075524;28;20457;-83
2021/10/30 05:18:52;;;;;;;18.38;13.27;;;11.50;99.90;;;;;;5093976;28;20111;-82
2021/10/30 05:21:18;;;;;;;15.57;11.82;;;11.50;99.90;;;;;;5093794;28;20043;-83
2021/10/30 05:23:43;;;;;;;12.98;9.90;;;11.50;99.90;;;;;;5075880;28;20032;-83
2021/10/30 05:26:09;;;;;;;13.88;10.95;;;11.50;99.90;;;;;;5093647;28;20020;-84
2021/10/30 05:28:35;;;;;;;16.58;11.32;;;11.50;99.90;;;;;;5075289;28;20024;-82
2021/10/30 05:31:01;;;;;;;16.65;10.25;;;11.40;99.90;;;;;;5093568;28;20292;-81
2021/10/30 05:33:27;;;;;;;12.52;10.07;;;11.40;99.90;;;;;;5093583;28;20028;-82
2021/10/30 05:35:53;;;;;;;14.90;9.45;;;11.40;99.90;;;;;;5093376;28;20451;-83
2021/10/30 05:38:19;;;;;;;13.23;10.43;;;11.30;99.90;;;;;;5075289;28;20082;-82
2021/10/30 05:40:45;;;;;;;13.55;9.07;;;11.30;99.90;;;;;;5093450;28;20040;-82
2021/10/30 05:43:12;;;;;;;11.57;8.40;;;11.20;99.90;;;;;;5093469;28;20039;-82
2021/10/30 05:45:39;;;;;;;12.50;9.07;;;11.20;99.90;;;;;;5093438;28;20016;-82
2021/10/30 05:48:06;;;;;;;16.88;10.75;;;11.20;99.90;;;;;;5078460;28;20102;-79
2021/10/30 05:50:33;;;;;;;15.35;11.73;;;11.20;99.90;;;;;;5091923;28;20047;-80
2021/10/30 05:52:59;;;;;;;15.45;10.45;;;11.20;99.90;;;;;;5092099;28;20016;-82
2021/10/30 05:55:25;;;;;;;13.07;9.65;;;11.10;99.90;;;;;;5091752;28;20522;-83
2021/10/30 05:57:50;;;;;;;16.75;10.02;;;11.20;99.90;;;;;;5091732;28;20032;-82
2021/10/30 06:00:16;;;;;;;14.15;10.45;;;11.10;99.90;;;;;;5091421;28;20043;-82
2021/10/30 06:02:42;;;;;;;16.52;11.23;;;11.10;99.90;;;;;;5092843;28;20066;-83
2021/10/30 06:05:08;;;;;;;14.43;10.73;;;11.10;99.90;;;;;;5091462;28;20122;-80
2021/10/30 06:07:33;;;;;;;12.77;9.90;;;11.10;99.90;;;;;;5093200;28;20089;-82
2021/10/30 06:09:59;;;;;;;12.70;9.85;;;11.00;99.90;;;;;;5091551;28;20059;-81
2021/10/30 06:12:25;;;;;;;13.05;8.82;;;11.00;99.90;;;;;;5091570;28;20123;-82
2021/10/30 06:14:51;;;;;;;10.80;8.15;;;11.10;99.90;;;;;;5091658;28;20465;-82
2021/10/30 06:17:16;;;;;;;12.35;8.93;;;11.10;99.90;;;;;;5092958;28;20032;-82
2021/10/30 06:19:42;;;;;;;11.15;9.00;;;11.10;99.90;;;;;;5091559;28;20027;-82
2021/10/30 06:22:08;;;;;;;14.10;10.73;;;11.10;99.90;;;;;;5091463;28;20035;-81
2021/10/30 06:24:33;;;;;;;15.15;11.75;;;11.00;99.90;;;;;;5092845;28;20028;-82
2021/10/30 06:26:59;;;;;;;17.75;13.07;;;11.00;99.90;;;;;;5092868;28;20024;-81
2021/10/30 06:29:28;;;;;;;17.02;13.10;;;11.00;99.90;;;;;;5091478;28;20036;-83
2021/10/30 06:31:53;;;;;;;19.48;14.43;;;11.00;99.90;;;;;;5091370;28;20016;-81
2021/10/30 06:34:19;;;;;;;21.50;15.40;;;11.10;99.90;;;;;;5091324;28;20028;-82
2021/10/30 06:36:45;;;;;;;22.15;15.57;;;11.00;99.90;;;;;;5092452;28;20024;-82
2021/10/30 06:39:11;;;;;;;18.75;13.73;;;11.10;99.90;;;;;;5091446;28;20020;-82
2021/10/30 06:41:36;;;;;;;23.13;15.40;;;11.00;99.90;;;;;;5091390;28;20093;-83
2021/10/30 06:44:02;;;;;;;21.52;13.75;;;11.10;99.90;;;;;;5091211;28;20031;-83
2021/10/30 06:46:28;;;;;;;22.52;14.25;;;11.10;99.90;;;;;;5091057;28;20550;-83
2021/10/30 06:48:56;;;;;;;19.67;14.50;;;11.10;99.90;;;;;;5092345;28;20131;-81
2021/10/30 06:51:23;;;;;;;19.20;14.68;;;11.10;99.90;;;;;;5074223;28;20477;-84
2021/10/30 06:53:49;;;;;;;20.58;14.23;;;11.10;99.90;;;;;;5074500;28;20025;-82
2021/10/30 06:56:15;;;;;;;20.88;15.35;;;11.10;99.90;;;;;;5074306;28;20453;-81
2021/10/30 06:58:41;;;;;;;18.77;14.20;;;11.10;99.90;;;;;;5075055;28;20039;-82
2021/10/30 07:01:07;;;;;;;21.33;14.73;;;11.10;99.90;;;;;;5077782;28;20103;-83
2021/10/30 07:03:33;;;;;;;25.27;16.83;;;11.10;99.90;;;;;;5078354;28;20220;-81
2021/10/30 07:05:59;;;;;;;22.88;15.27;;;11.10;99.90;;;;;;5078701;28;20028;-83
2021/10/30 07:08:25;;;;;;;24.65;15.27;;;11.10;99.90;;;;;;5078578;28;20016;-83
2021/10/30 07:10:51;;;;;;;25.15;17.00;;;11.10;99.90;;;;;;5078574;28;20087;-83
2021/10/30 07:13:16;;;;;;;21.58;15.23;;;11.10;99.90;;;;;;5096440;28;20049;-82
2021/10/30 07:15:42;;;;;;;26.15;16.95;;;11.20;99.90;;;;;;5096223;28;20035;-82
2021/10/30 07:18:08;;;;;;;24.77;17.13;;;11.20;99.90;;;;;;5096224;28;20057;-82
2021/10/30 07:20:33;;;;;;;26.65;17.60;;;11.20;99.90;;;;;;5078027;28;20017;-84
2021/10/30 07:22:59;;;;;;;21.92;15.43;;;11.20;99.90;;;;;;5096010;28;20032;-84
2021/10/30 07:25:25;;;;;;;24.23;17.67;;;11.20;99.90;;;;;;5077742;28;20077;-82
2021/10/30 07:27:52;;;;;;;30.10;19.85;;;11.20;99.90;;;;;;5077615;28;20500;-82
2021/10/30 07:30:20;;;;;;;24.27;18.40;;;11.20;99.90;;;;;;5077893;28;20031;-83
2021/10/30 07:32:52;;;;;;;22.95;16.88;;;11.20;99.90;;;;;;5077539;28;20024;-83
2021/10/30 07:35:18;;;;;;;24.50;17.20;;;11.20;99.90;;;;;;5077527;28;20115;-83
2021/10/30 07:37:44;;;;;;;23.58;17.00;;;11.20;99.90;;;;;;5077323;28;20115;-82
2021/10/30 07:40:10;;;;;;;25.58;17.35;;;11.30;99.90;;;;;;5077671;28;20362;-81
2021/10/30 07:42:36;;;;;;;21.45;15.68;;;11.30;99.90;;;;;;5095711;28;20026;-83
2021/10/30 07:45:03;;;;;;;23.63;16.35;;;11.30;99.90;;;;;;5077733;28;20442;-83
2021/10/30 07:47:28;;;;;;;21.08;15.13;;;11.30;99.90;;;;;;5077394;28;20113;-83
2021/10/30 07:49:54;;;;;;;22.85;16.30;;;11.30;99.90;;;;;;5077423;28;20033;-84
2021/10/30 07:52:21;;;;;;;18.52;14.02;;;11.30;99.90;;;;;;5077350;28;20024;-83
2021/10/30 07:54:47;;;;;;;21.08;14.07;;;11.40;99.90;;;;;;5077343;28;20023;-82
2021/10/30 07:57:13;;;;;;;21.17;13.70;;;11.30;99.90;;;;;;5095516;28;20055;-82
2021/10/30 07:59:39;;;;;;;21.00;14.20;;;11.40;99.90;;;;;;5077009;28;20066;-83
2021/10/30 08:02:06;;;;;;;20.15;14.23;;;11.40;99.90;;;;;;5095507;28;20020;-83
2021/10/30 08:04:35;;;;;;;19.80;14.57;;;11.40;99.90;;;;;;5095905;28;20124;-83
2021/10/30 08:07:03;;;;;;;16.95;14.00;;;11.40;99.90;;;;;;5077488;28;20016;-85
2021/10/30 08:09:29;;;;;;;17.45;13.02;;;11.40;99.90;;;;;;5076991;28;20039;-83
2021/10/30 08:11:55;;;;;;;17.38;13.57;;;11.40;99.90;;;;;;5095304;28;20043;-82
2021/10/30 08:14:24;;;;;;;17.17;12.85;;;11.40;99.90;;;;;;5095296;28;20059;-81
2021/10/30 08:16:50;;;;;;;19.67;13.52;;;11.40;99.90;;;;;;5095056;28;20017;-83
2021/10/30 08:19:17;;;;;;;17.48;12.60;;;11.50;99.90;;;;;;5095287;28;20468;-82
2021/10/30 08:21:43;;;;;;;18.90;13.38;;;11.50;99.90;;;;;;5095166;28;20020;-83
2021/10/30 08:24:08;;;;;;;17.75;12.02;;;11.50;99.90;;;;;;5077025;28;20492;-82
2021/10/30 08:26:35;;;;;;;16.27;12.80;;;11.50;99.90;;;;;;5094871;28;20024;-83
2021/10/30 08:29:02;;;;;;;16.33;11.40;;;11.50;99.90;;;;;;5095346;28;20095;-84
2021/10/30 08:31:28;;;;;;;15.32;12.68;;;11.50;99.90;;;;;;5076623;28;20469;-82
2021/10/30 08:33:56;;;;;;;15.20;10.95;;;11.50;99.90;;;;;;5094763;28;20024;-83
2021/10/30 08:36:23;;;;;;;15.73;11.50;;;11.50;99.90;;;;;;5094744;28;20541;-81
2021/10/30 08:38:48;;;;;;;16.70;12.32;;;11.50;99.90;;;;;;5076367;28;20490;-80
2021/10/30 08:41:14;;;;;;;14.80;10.90;;;11.60;99.90;;;;;;5076759;28;20031;-82
2021/10/30 08:43:40;;;;;;;12.45;9.55;;;11.60;99.90;;;;;;5094659;28;20031;-83
2021/10/30 08:46:06;;;;;;;14.15;10.35;;;11.60;99.90;;;;;;5076357;28;20024;-82
2021/10/30 08:48:32;;;;;;;15.65;10.35;;;11.60;99.90;;;;;;5084091;28;20044;-83
2021/10/30 08:51:00;;;;;;;13.00;9.57;;;11.60;99.90;;;;;;5093528;28;20401;-81
2021/10/30 08:53:26;;;;;;;13.02;9.48;;;11.60;99.90;;;;;;5093330;28;20085;-81
2021/10/30 08:55:53;;;;;;;12.25;9.40;;;11.70;99.90;;;;;;5093125;28;20028;-80
2021/10/30 08:58:20;;;;;;;14.80;10.38;;;11.70;99.90;;;;;;5092766;28;20084;-82
2021/10/30 09:00:53;;;;;;;14.88;10.38;;;11.70;99.90;;;;;;5094118;28;20024;-82
2021/10/30 09:03:21;;;;;;;14.00;9.48;;;11.70;99.90;;;;;;5094391;28;20024;-81
2021/10/30 09:05:49;;;;;;;13.13;9.82;;;11.70;99.90;;;;;;5093556;28;20103;-82
2021/10/30 09:08:17;;;;;;;13.38;9.48;;;11.80;99.90;;;;;;5094111;28;20434;-81
2021/10/30 09:10:46;;;;;;;13.23;9.55;;;11.80;99.90;;;;;;5094300;28;20027;-83
2021/10/30 09:13:20;;;;;;;15.50;11.07;;;11.80;99.90;;;;;;5092887;28;20024;-81
2021/10/30 09:15:51;;;;;;;13.25;9.85;;;11.80;99.90;;;;;;5092425;28;20016;-83
2021/10/30 09:18:23;;;;;;;12.10;9.60;;;11.80;99.90;;;;;;5092783;28;20477;-82
2021/10/30 09:20:51;;;;;;;12.75;10.15;;;11.80;99.90;;;;;;5092539;28;20377;-81
2021/10/30 09:23:18;;;;;;;12.93;8.85;;;11.80;99.90;;;;;;5092090;28;20073;-81
2021/10/30 09:26:09;;;;;;;15.73;10.38;;;11.80;99.90;;;;;;5093603;28;20031;-81
2021/10/30 09:28:41;;;;;;;13.38;9.88;;;11.80;99.90;;;;;;5089485;28;20039;-82
2021/10/30 09:31:10;;;;;;;12.20;9.68;;;11.90;99.90;;;;;;5093325;28;20040;-81
2021/10/30 09:33:48;;;;;;;13.63;10.35;;;11.90;99.90;;;;;;5092446;28;20476;-80
2021/10/30 09:36:14;;;;;;;14.02;9.85;;;11.90;99.90;;;;;;5093667;28;20540;-83
2021/10/30 09:38:42;;;;;;;13.85;9.18;;;11.90;99.90;;;;;;5093619;28;20032;-81
2021/10/30 09:41:27;;;;;;;13.43;9.10;;;11.90;99.90;;;;;;5093438;28;20021;-83
2021/10/30 09:44:03;;;;;;;12.77;9.63;;;12.00;99.90;;;;;;5092345;28;20069;-81
2021/10/30 09:46:36;;;;;;;12.10;9.10;;;12.00;99.90;;;;;;5093379;28;20066;-81
2021/10/30 09:49:19;;;;;;;12.57;8.50;;;12.00;99.90;;;;;;5093371;28;20048;-81
2021/10/30 09:51:53;;;;;;;11.13;8.35;;;12.10;99.90;;;;;;5093295;28;20031;-81
2021/10/30 09:54:43;;;;;;;14.50;8.98;;;12.10;99.90;;;;;;5075287;28;20060;-82
2021/10/30 09:57:13;;;;;;;11.75;8.43;;;12.10;99.90;;;;;;5075309;28;20038;-82
2021/10/30 09:59:39;;;;;;;10.85;8.50;;;12.10;99.90;;;;;;5093133;28;20047;-81
2021/10/30 10:02:07;;;;;;;11.70;8.60;;;12.10;99.90;;;;;;5074985;28;20012;-83
2021/10/30 10:04:36;;;;;;;12.15;8.68;;;12.20;99.90;;;;;;5075138;28;20055;-82
2021/10/30 10:07:08;;;;;;;12.13;9.07;;;12.20;99.90;;;;;;5093416;28;20073;-83
2021/10/30 10:09:35;;;;;;;12.50;8.27;;;12.20;99.90;;;;;;5074910;28;20023;-81
2021/10/30 10:12:01;;;;;;;10.80;8.00;;;12.20;99.90;;;;;;5093197;28;20355;-82
2021/10/30 10:14:27;;;;;;;13.13;8.73;;;12.20;99.90;;;;;;5074703;28;20031;-80
2021/10/30 10:16:55;;;;;;;9.98;8.10;;;12.20;99.90;;;;;;5074309;28;20024;-81
2021/10/30 10:19:23;;;;;;;11.18;8.38;;;12.20;99.90;;;;;;5074618;28;20067;-81
2021/10/30 10:21:53;;;;;;;11.20;7.95;;;12.30;99.90;;;;;;5093195;28;20020;-81
2021/10/30 10:24:26;;;;;;;10.50;8.07;;;12.30;99.90;;;;;;5092793;28;20052;-81
2021/10/30 10:26:53;;;;;;;9.98;8.00;;;12.30;99.90;;;;;;5093058;28;20016;-81
2021/10/30 10:29:34;;;;;;;10.27;7.90;;;12.30;99.90;;;;;;5074621;28;20020;-82
2021/10/30 10:32:06;;;;;;;11.00;8.02;;;12.30;99.90;;;;;;5074808;28;20462;-83
2021/10/30 10:34:38;;;;;;;12.98;7.85;;;12.30;99.90;;;;;;5074706;28;20024;-82
2021/10/30 10:37:17;;;;;;;9.27;7.53;;;12.30;99.90;;;;;;5074458;28;20020;-83
2021/10/30 10:39:54;;;;;;;12.10;8.95;;;12.30;99.90;;;;;;5092811;28;20073;-81
2021/10/30 10:42:35;;;;;;;10.57;7.93;;;12.30;99.90;;;;;;5092897;28;20020;-81
2021/10/30 10:45:05;;;;;;;12.43;8.43;;;12.40;99.90;;;;;;5074878;28;20032;-82
2021/10/30 10:47:40;;;;;;;12.45;7.55;;;12.30;99.90;;;;;;5074570;28;20466;-80
2021/10/30 10:50:11;;;;;;;11.57;7.68;;;12.40;99.90;;;;;;5092517;28;20032;-82
2021/10/30 10:52:59;;;;;;;11.77;8.30;;;12.40;99.90;;;;;;5074604;28;20063;-81
2021/10/30 10:55:26;;;;;;;13.38;8.18;;;12.40;99.90;;;;;;5074358;28;20527;-81
2021/10/30 10:57:59;;;;;;;10.48;7.45;;;12.40;99.90;;;;;;5074444;28;20020;-80
2021/10/30 11:00:25;;;;;;;;;;;12.40;99.90;;;;;;5074735;28;20028;-82
2021/10/30 11:02:50;;;;;;;12.98;8.32;;;12.40;99.90;;;;;;5092277;28;19957;-82
2021/10/30 11:05:22;;;;;;;13.25;8.20;;;12.50;99.90;;;;;;5074604;28;20028;-82
2021/10/30 11:07:50;;;;;;;13.05;8.77;;;12.40;99.90;;;;;;5074678;28;20115;-83
2021/10/30 11:10:16;;;;;;;10.52;8.48;;;12.50;99.90;;;;;;5074212;28;20067;-83
2021/10/30 11:13:01;;;;;;;11.27;7.90;;;12.50;99.90;;;;;;5074592;28;20028;-83
2021/10/30 11:15:40;;;;;;;12.98;9.00;;;12.50;99.90;;;;;;5074389;28;20020;-82
2021/10/30 11:18:09;;;;;;;10.95;8.52;;;12.50;99.90;;;;;;5074248;28;20043;-82
2021/10/30 11:20:43;;;;;;;13.05;9.27;;;12.50;99.90;;;;;;5092662;28;20428;-83
2021/10/30 11:23:28;;;;;;;13.38;9.27;;;12.50;99.90;;;;;;5074313;28;20020;-84
2021/10/30 11:26:06;;;;;;;10.93;7.95;;;12.50;99.90;;;;;;5074254;28;20134;-82
2021/10/30 11:28:37;;;;;;;11.13;8.38;;;12.60;99.90;;;;;;5073963;28;20420;-82
2021/10/30 11:31:13;;;;;;;10.20;7.82;;;12.60;99.90;;;;;;5091889;28;20529;-81
2021/10/30 11:33:39;;;;;;;10.60;8.52;;;12.60;99.90;;;;;;5092244;28;20023;-83
2021/10/30 11:36:12;;;;;;;9.75;7.78;;;12.60;99.90;;;;;;5092343;28;20390;-83
2021/10/30 11:38:51;;;;;;;12.18;7.43;;;12.60;99.90;;;;;;5087325;28;20063;-83
2021/10/30 11:41:22;;;;;;;9.10;7.43;;;12.70;99.90;;;;;;5061217;28;20028;-83
2021/10/30 11:43:49;;;;;;;9.90;7.80;;;12.70;99.90;;;;;;5081256;28;20028;-84
2021/10/30 11:46:18;;;;;;;13.05;8.63;;;12.70;99.90;;;;;;5087428;28;20481;-84
2021/10/30 11:49:13;;;;;;;13.50;8.95;;;12.70;99.90;;;;;;5086935;28;20044;-82
2021/10/30 11:51:41;;;;;;;9.07;7.65;;;12.80;99.90;;;;;;5083870;28;20117;-84
2021/10/30 11:54:09;;;;;;;10.55;7.68;;;12.80;99.90;;;;;;5094031;28;20055;-83
2021/10/30 11:56:35;;;;;;;13.32;8.02;;;12.80;99.90;;;;;;5094035;28;20138;-84
2021/10/30 11:59:04;;;;;;;15.73;8.55;;;12.90;99.90;;;;;;5094160;28;20130;-83
2021/10/30 12:01:44;;;;;;;11.98;7.95;;;12.90;99.90;;;;;;5095245;28;20154;-82
2021/10/30 12:04:20;;;;;;;10.60;7.45;;;12.90;99.90;;;;;;5095392;28;20130;-81
2021/10/30 12:07:00;;;;;;;11.40;7.32;;;13.00;99.90;;;;;;5095380;28;20504;-83
2021/10/30 12:09:27;;;;;;;9.55;6.90;;;13.00;99.90;;;;;;5095434;28;20034;-82
2021/10/30 12:11:56;;;;;;;9.63;6.65;;;13.00;99.90;;;;;;5095560;28;20061;-84
2021/10/30 12:14:30;;;;;;;10.00;7.05;;;13.00;99.90;;;;;;5094125;28;20020;-82
2021/10/30 12:17:00;;;;;;;8.73;6.22;;;13.00;99.90;;;;;;5094019;28;20020;-82
2021/10/30 12:19:28;;;;;;;8.75;5.95;;;13.00;99.90;;;;;;5086422;28;20032;-81
2021/10/30 12:22:05;;;;;;;8.30;6.70;;;13.00;99.90;;;;;;5079751;28;20039;-81
2021/10/30 12:24:30;;;;;;;8.15;5.93;;;13.10;99.90;;;;;;5076459;28;20021;-79
2021/10/30 12:26:58;;;;;;;9.00;6.60;;;13.10;99.90;;;;;;5078510;28;20020;-82
2021/10/30 12:29:28;;;;;;;9.50;7.38;;;13.20;99.90;;;;;;5079599;28;20288;-81
2021/10/30 12:32:08;;;;;;;8.80;6.50;;;13.40;99.90;;;;;;5087200;28;20036;-82
2021/10/30 12:34:35;;;;;;;11.45;6.45;;;13.60;99.90;;;;;;5087330;28;20028;-79
2021/10/30 12:37:09;;;;;;;11.48;6.78;;;13.60;99.90;;;;;;5078374;28;20020;-81
2021/10/30 12:39:35;;;;;;;8.20;7.10;;;13.60;99.90;;;;;;5082541;28;20024;-84
2021/10/30 12:42:14;;;;;;;10.05;7.75;;;13.60;99.90;;;;;;5091049;28;20024;-87